sensor_id;sensor_type;location;lat;lon;timestamp;temperature;humidity
12700;DHT22;6414;49.570;6.060;2023-04-30T00:00:53;9.90;99.90
12700;DHT22;6414;49.570;6.060;2023-04-30T00:03:39;9.70;99.90
12700;DHT22;6414;49.570;6.060;2023-04-30T00:06:25;9.80;99.90
12700;DHT22;6414;49.570;6.060;2023-04-30T00:09:12;9.90;99.90
12700;DHT22;6414;49.570;6.060;2023-04-30T00:11:59;9.80;99.90
12700;DHT22;6414;49.570;6.060;2023-04-30T00:14:45;9.80;99.90
12700;DHT22;6414;49.570;6.060;2023-04-30T00:17:32;9.80;99.90
12700;DHT22;6414;49.570;6.060;2023-04-30T00:20:19;9.90;99.90
12700;DHT22;6414;49.570;6.060;2023-04-30T00:23:05;9.80;99.90
12700;DHT22;6414;49.570;6.060;2023-04-30T00:25:52;9.70;99.90
12700;DHT22;6414;49.570;6.060;2023-04-30T00:28:38;9.70;99.90
12700;DHT22;6414;49.570;6.060;2023-04-30T00:31:24;9.70;99.90
12700;DHT22;6414;49.570;6.060;2023-04-30T00:34:10;9.80;99.90
12700;DHT22;6414;49.570;6.060;2023-04-30T00:36:56;9.90;99.90
12700;DHT22;6414;49.570;6.060;2023-04-30T00:39:43;9.90;99.90
12700;DHT22;6414;49.570;6.060;2023-04-30T00:42:29;9.90;99.90
12700;DHT22;6414;49.570;6.060;2023-04-30T00:45:15;9.80;99.90
12700;DHT22;6414;49.570;6.060;2023-04-30T00:48:01;9.80;99.90
12700;DHT22;6414;49.570;6.060;2023-04-30T00:50:47;9.80;99.90
12700;DHT22;6414;49.570;6.060;2023-04-30T00:53:33;9.70;99.90
12700;DHT22;6414;49.570;6.060;2023-04-30T00:56:20;9.70;99.90
12700;DHT22;6414;49.570;6.060;2023-04-30T00:59:07;9.70;99.90
12700;DHT22;6414;49.570;6.060;2023-04-30T01:01:53;9.60;99.90
12700;DHT22;6414;49.570;6.060;2023-04-30T01:04:40;9.70;99.90
12700;DHT22;6414;49.570;6.060;2023-04-30T01:07:26;9.70;99.90
12700;DHT22;6414;49.570;6.060;2023-04-30T01:10:13;9.70;99.90
12700;DHT22;6414;49.570;6.060;2023-04-30T01:13:16;9.70;99.90
12700;DHT22;6414;49.570;6.060;2023-04-30T01:16:10;9.60;99.90
12700;DHT22;6414;49.570;6.060;2023-04-30T01:19:08;9.50;99.90
12700;DHT22;6414;49.570;6.060;2023-04-30T01:21:51;9.60;99.90
12700;DHT22;6414;49.570;6.060;2023-04-30T01:25:05;9.70;99.90
12700;DHT22;6414;49.570;6.060;2023-04-30T01:30:40;9.50;99.90
12700;DHT22;6414;49.570;6.060;2023-04-30T01:33:26;9.50;99.90
12700;DHT22;6414;49.570;6.060;2023-04-30T01:39:22;9.50;99.90
12700;DHT22;6414;49.570;6.060;2023-04-30T01:42:42;9.50;99.90
12700;DHT22;6414;49.570;6.060;2023-04-30T01:45:11;9.50;99.90
12700;DHT22;6414;49.570;6.060;2023-04-30T01:50:57;9.60;99.90
12700;DHT22;6414;49.570;6.060;2023-04-30T01:53:40;9.70;99.90
12700;DHT22;6414;49.570;6.060;2023-04-30T01:56:27;9.60;99.90
12700;DHT22;6414;49.570;6.060;2023-04-30T01:59:12;9.60;99.90
12700;DHT22;6414;49.570;6.060;2023-04-30T02:01:59;9.70;99.90
12700;DHT22;6414;49.570;6.060;2023-04-30T02:04:45;9.70;99.90
12700;DHT22;6414;49.570;6.060;2023-04-30T02:07:42;9.70;99.90
12700;DHT22;6414;49.570;6.060;2023-04-30T02:10:28;9.60;99.90
12700;DHT22;6414;49.570;6.060;2023-04-30T02:13:13;9.60;99.90
12700;DHT22;6414;49.570;6.060;2023-04-30T02:16:00;9.60;99.90
12700;DHT22;6414;49.570;6.060;2023-04-30T02:18:46;9.70;99.90
12700;DHT22;6414;49.570;6.060;2023-04-30T02:21:32;9.60;99.90
12700;DHT22;6414;49.570;6.060;2023-04-30T02:24:18;9.60;99.90
12700;DHT22;6414;49.570;6.060;2023-04-30T02:27:05;9.60;99.90
12700;DHT22;6414;49.570;6.060;2023-04-30T02:29:51;9.60;99.90
12700;DHT22;6414;49.570;6.060;2023-04-30T02:32:37;9.60;99.90
12700;DHT22;6414;49.570;6.060;2023-04-30T02:35:23;9.70;99.90
12700;DHT22;6414;49.570;6.060;2023-04-30T02:38:09;9.60;99.90
12700;DHT22;6414;49.570;6.060;2023-04-30T02:40:56;9.60;99.90
12700;DHT22;6414;49.570;6.060;2023-04-30T02:43:43;9.50;99.90
12700;DHT22;6414;49.570;6.060;2023-04-30T02:46:29;9.50;99.90
12700;DHT22;6414;49.570;6.060;2023-04-30T02:49:15;9.50;99.90
12700;DHT22;6414;49.570;6.060;2023-04-30T02:52:02;9.40;99.90
12700;DHT22;6414;49.570;6.060;2023-04-30T02:54:49;9.40;99.90
12700;DHT22;6414;49.570;6.060;2023-04-30T02:57:36;9.30;99.90
12700;DHT22;6414;49.570;6.060;2023-04-30T03:00:21;9.30;99.90
12700;DHT22;6414;49.570;6.060;2023-04-30T03:03:07;9.30;99.90
12700;DHT22;6414;49.570;6.060;2023-04-30T03:05:54;9.20;99.90
12700;DHT22;6414;49.570;6.060;2023-04-30T03:08:40;9.10;99.90
12700;DHT22;6414;49.570;6.060;2023-04-30T03:11:27;9.10;99.90
12700;DHT22;6414;49.570;6.060;2023-04-30T03:14:14;9.00;99.90
12700;DHT22;6414;49.570;6.060;2023-04-30T03:17:00;9.00;99.90
12700;DHT22;6414;49.570;6.060;2023-04-30T03:19:46;9.00;99.90
12700;DHT22;6414;49.570;6.060;2023-04-30T03:22:32;8.90;99.90
12700;DHT22;6414;49.570;6.060;2023-04-30T03:25:18;8.90;99.90
12700;DHT22;6414;49.570;6.060;2023-04-30T03:28:05;8.80;99.90
12700;DHT22;6414;49.570;6.060;2023-04-30T03:30:51;8.70;99.90
12700;DHT22;6414;49.570;6.060;2023-04-30T03:33:37;8.70;99.90
12700;DHT22;6414;49.570;6.060;2023-04-30T03:36:24;8.70;99.90
12700;DHT22;6414;49.570;6.060;2023-04-30T03:39:10;8.60;99.90
12700;DHT22;6414;49.570;6.060;2023-04-30T03:41:56;8.70;99.90
12700;DHT22;6414;49.570;6.060;2023-04-30T03:44:43;8.60;99.90
12700;DHT22;6414;49.570;6.060;2023-04-30T03:47:29;8.60;99.90
12700;DHT22;6414;49.570;6.060;2023-04-30T03:50:16;8.70;99.90
12700;DHT22;6414;49.570;6.060;2023-04-30T03:53:01;8.60;99.90
12700;DHT22;6414;49.570;6.060;2023-04-30T03:55:48;8.70;99.90
12700;DHT22;6414;49.570;6.060;2023-04-30T03:58:34;8.70;99.90
12700;DHT22;6414;49.570;6.060;2023-04-30T04:01:20;8.70;99.90
12700;DHT22;6414;49.570;6.060;2023-04-30T04:04:06;8.70;99.90
12700;DHT22;6414;49.570;6.060;2023-04-30T04:06:52;8.70;99.90
12700;DHT22;6414;49.570;6.060;2023-04-30T04:09:38;8.80;99.90
12700;DHT22;6414;49.570;6.060;2023-04-30T04:12:23;8.80;99.90
12700;DHT22;6414;49.570;6.060;2023-04-30T04:15:10;8.60;99.90
12700;DHT22;6414;49.570;6.060;2023-04-30T04:17:57;8.60;99.90
12700;DHT22;6414;49.570;6.060;2023-04-30T04:20:43;8.60;99.90
12700;DHT22;6414;49.570;6.060;2023-04-30T04:23:29;8.70;99.90
12700;DHT22;6414;49.570;6.060;2023-04-30T04:26:15;8.70;99.90
12700;DHT22;6414;49.570;6.060;2023-04-30T04:29:02;8.80;99.90
12700;DHT22;6414;49.570;6.060;2023-04-30T04:31:47;8.80;99.90
12700;DHT22;6414;49.570;6.060;2023-04-30T04:34:33;8.70;99.90
12700;DHT22;6414;49.570;6.060;2023-04-30T04:37:19;8.70;99.90
12700;DHT22;6414;49.570;6.060;2023-04-30T04:40:06;8.80;99.90
12700;DHT22;6414;49.570;6.060;2023-04-30T04:42:52;8.80;99.90
12700;DHT22;6414;49.570;6.060;2023-04-30T04:45:39;8.70;99.90
12700;DHT22;6414;49.570;6.060;2023-04-30T04:48:25;8.70;99.90
12700;DHT22;6414;49.570;6.060;2023-04-30T04:51:12;8.80;99.90
12700;DHT22;6414;49.570;6.060;2023-04-30T04:53:59;8.80;99.90
12700;DHT22;6414;49.570;6.060;2023-04-30T04:56:45;8.80;99.90
12700;DHT22;6414;49.570;6.060;2023-04-30T04:59:31;8.80;99.90
12700;DHT22;6414;49.570;6.060;2023-04-30T05:02:17;8.80;99.90
12700;DHT22;6414;49.570;6.060;2023-04-30T05:05:03;8.80;99.90
12700;DHT22;6414;49.570;6.060;2023-04-30T05:07:49;8.90;99.90
12700;DHT22;6414;49.570;6.060;2023-04-30T05:10:35;8.90;99.90
12700;DHT22;6414;49.570;6.060;2023-04-30T05:13:22;8.90;99.90
12700;DHT22;6414;49.570;6.060;2023-04-30T05:16:08;8.90;99.90
12700;DHT22;6414;49.570;6.060;2023-04-30T05:18:54;9.00;99.90
12700;DHT22;6414;49.570;6.060;2023-04-30T05:21:40;9.00;99.90
12700;DHT22;6414;49.570;6.060;2023-04-30T05:24:27;9.20;99.90
12700;DHT22;6414;49.570;6.060;2023-04-30T05:27:12;9.20;99.90
12700;DHT22;6414;49.570;6.060;2023-04-30T05:29:58;9.20;99.90
12700;DHT22;6414;49.570;6.060;2023-04-30T05:32:45;9.20;99.90
12700;DHT22;6414;49.570;6.060;2023-04-30T05:35:32;9.20;99.90
12700;DHT22;6414;49.570;6.060;2023-04-30T05:38:18;9.20;99.90
12700;DHT22;6414;49.570;6.060;2023-04-30T05:41:04;9.20;99.90
12700;DHT22;6414;49.570;6.060;2023-04-30T05:43:50;9.30;99.90
12700;DHT22;6414;49.570;6.060;2023-04-30T05:46:37;9.30;99.90
12700;DHT22;6414;49.570;6.060;2023-04-30T05:49:23;9.30;99.90
12700;DHT22;6414;49.570;6.060;2023-04-30T05:52:09;9.50;99.90
12700;DHT22;6414;49.570;6.060;2023-04-30T05:54:55;9.40;99.90
12700;DHT22;6414;49.570;6.060;2023-04-30T05:57:41;9.40;99.90
12700;DHT22;6414;49.570;6.060;2023-04-30T06:00:27;9.50;99.90
12700;DHT22;6414;49.570;6.060;2023-04-30T06:03:13;9.70;99.90
12700;DHT22;6414;49.570;6.060;2023-04-30T06:06:00;9.70;99.90
12700;DHT22;6414;49.570;6.060;2023-04-30T06:08:46;9.70;99.90
12700;DHT22;6414;49.570;6.060;2023-04-30T06:11:32;9.70;99.90
12700;DHT22;6414;49.570;6.060;2023-04-30T06:14:18;9.90;99.90
12700;DHT22;6414;49.570;6.060;2023-04-30T06:17:04;9.90;99.90
12700;DHT22;6414;49.570;6.060;2023-04-30T06:19:50;10.00;99.90
12700;DHT22;6414;49.570;6.060;2023-04-30T06:22:36;10.00;99.90
12700;DHT22;6414;49.570;6.060;2023-04-30T06:25:22;10.20;99.90
12700;DHT22;6414;49.570;6.060;2023-04-30T06:28:08;10.20;99.90
12700;DHT22;6414;49.570;6.060;2023-04-30T06:30:55;10.30;99.90
12700;DHT22;6414;49.570;6.060;2023-04-30T06:33:42;10.20;99.90
12700;DHT22;6414;49.570;6.060;2023-04-30T06:36:28;10.40;99.90
12700;DHT22;6414;49.570;6.060;2023-04-30T06:39:14;10.50;99.90
12700;DHT22;6414;49.570;6.060;2023-04-30T06:42:00;10.70;99.90
12700;DHT22;6414;49.570;6.060;2023-04-30T06:44:46;10.80;99.90
12700;DHT22;6414;49.570;6.060;2023-04-30T06:47:38;10.80;99.90
12700;DHT22;6414;49.570;6.060;2023-04-30T06:50:24;10.90;99.90
12700;DHT22;6414;49.570;6.060;2023-04-30T06:53:11;10.90;99.90
12700;DHT22;6414;49.570;6.060;2023-04-30T06:55:58;10.80;99.90
12700;DHT22;6414;49.570;6.060;2023-04-30T06:58:44;10.80;99.90
12700;DHT22;6414;49.570;6.060;2023-04-30T07:01:30;11.00;99.90
12700;DHT22;6414;49.570;6.060;2023-04-30T07:04:17;11.10;99.90
12700;DHT22;6414;49.570;6.060;2023-04-30T07:07:04;11.30;99.90
12700;DHT22;6414;49.570;6.060;2023-04-30T07:09:51;11.30;99.90
12700;DHT22;6414;49.570;6.060;2023-04-30T07:12:37;11.30;99.90
12700;DHT22;6414;49.570;6.060;2023-04-30T07:15:23;11.30;99.90
12700;DHT22;6414;49.570;6.060;2023-04-30T07:18:09;11.60;99.90
12700;DHT22;6414;49.570;6.060;2023-04-30T07:20:56;11.30;99.90
12700;DHT22;6414;49.570;6.060;2023-04-30T07:23:43;11.60;99.90
12700;DHT22;6414;49.570;6.060;2023-04-30T07:26:29;11.50;99.90
12700;DHT22;6414;49.570;6.060;2023-04-30T07:29:16;11.70;99.90
12700;DHT22;6414;49.570;6.060;2023-04-30T07:32:02;11.70;99.90
12700;DHT22;6414;49.570;6.060;2023-04-30T07:34:48;11.80;99.90
12700;DHT22;6414;49.570;6.060;2023-04-30T07:37:34;12.10;99.90
12700;DHT22;6414;49.570;6.060;2023-04-30T07:40:20;12.30;99.90
12700;DHT22;6414;49.570;6.060;2023-04-30T07:43:06;12.50;99.90
12700;DHT22;6414;49.570;6.060;2023-04-30T07:45:52;12.40;99.90
12700;DHT22;6414;49.570;6.060;2023-04-30T07:48:39;12.50;99.90
12700;DHT22;6414;49.570;6.060;2023-04-30T07:51:24;12.70;99.90
12700;DHT22;6414;49.570;6.060;2023-04-30T07:54:11;12.90;99.90
12700;DHT22;6414;49.570;6.060;2023-04-30T07:56:57;12.90;99.90
12700;DHT22;6414;49.570;6.060;2023-04-30T07:59:43;13.10;99.90
12700;DHT22;6414;49.570;6.060;2023-04-30T08:02:29;13.10;99.90
12700;DHT22;6414;49.570;6.060;2023-04-30T08:05:15;13.40;1.00
12700;DHT22;6414;49.570;6.060;2023-04-30T08:08:01;13.20;1.00
12700;DHT22;6414;49.570;6.060;2023-04-30T08:10:48;13.00;99.90
12700;DHT22;6414;49.570;6.060;2023-04-30T08:13:34;13.00;99.90
12700;DHT22;6414;49.570;6.060;2023-04-30T08:16:20;13.50;1.00
12700;DHT22;6414;49.570;6.060;2023-04-30T08:19:06;13.60;1.00
12700;DHT22;6414;49.570;6.060;2023-04-30T08:21:52;13.70;99.90
12700;DHT22;6414;49.570;6.060;2023-04-30T08:24:39;13.90;99.90
12700;DHT22;6414;49.570;6.060;2023-04-30T08:27:26;13.80;90.00
12700;DHT22;6414;49.570;6.060;2023-04-30T08:30:12;13.80;1.00
12700;DHT22;6414;49.570;6.060;2023-04-30T08:32:58;13.70;1.00
12700;DHT22;6414;49.570;6.060;2023-04-30T08:35:44;13.60;99.90
12700;DHT22;6414;49.570;6.060;2023-04-30T08:38:30;13.50;99.90
12700;DHT22;6414;49.570;6.060;2023-04-30T08:41:16;13.70;99.90
12700;DHT22;6414;49.570;6.060;2023-04-30T08:44:02;13.50;99.90
12700;DHT22;6414;49.570;6.060;2023-04-30T08:46:55;13.50;1.00
12700;DHT22;6414;49.570;6.060;2023-04-30T08:49:40;13.60;1.00
12700;DHT22;6414;49.570;6.060;2023-04-30T08:52:27;13.80;99.90
12700;DHT22;6414;49.570;6.060;2023-04-30T08:55:12;13.50;1.00
12700;DHT22;6414;49.570;6.060;2023-04-30T08:57:59;13.70;1.00
12700;DHT22;6414;49.570;6.060;2023-04-30T09:00:45;13.60;1.00
12700;DHT22;6414;49.570;6.060;2023-04-30T09:03:31;13.50;99.90
12700;DHT22;6414;49.570;6.060;2023-04-30T09:06:18;13.90;99.90
12700;DHT22;6414;49.570;6.060;2023-04-30T09:09:12;13.90;99.90
12700;DHT22;6414;49.570;6.060;2023-04-30T09:12:16;13.90;99.90
12700;DHT22;6414;49.570;6.060;2023-04-30T09:15:03;13.80;99.90
12700;DHT22;6414;49.570;6.060;2023-04-30T09:17:48;13.80;99.90
12700;DHT22;6414;49.570;6.060;2023-04-30T09:20:34;14.30;1.00
12700;DHT22;6414;49.570;6.060;2023-04-30T09:23:20;14.30;1.00
12700;DHT22;6414;49.570;6.060;2023-04-30T09:26:06;14.30;99.90
12700;DHT22;6414;49.570;6.060;2023-04-30T09:28:53;14.20;99.90
12700;DHT22;6414;49.570;6.060;2023-04-30T09:31:40;13.90;1.00
12700;DHT22;6414;49.570;6.060;2023-04-30T09:34:32;14.00;1.00
12700;DHT22;6414;49.570;6.060;2023-04-30T09:37:10;14.00;99.90
12700;DHT22;6414;49.570;6.060;2023-04-30T09:39:57;14.20;99.90
12700;DHT22;6414;49.570;6.060;2023-04-30T09:42:58;14.20;99.90
12700;DHT22;6414;49.570;6.060;2023-04-30T09:45:46;14.10;99.90
12700;DHT22;6414;49.570;6.060;2023-04-30T09:48:31;14.40;99.90
12700;DHT22;6414;49.570;6.060;2023-04-30T09:51:18;14.30;1.00
12700;DHT22;6414;49.570;6.060;2023-04-30T09:54:06;14.20;1.00
12700;DHT22;6414;49.570;6.060;2023-04-30T09:57:01;14.10;1.00
12700;DHT22;6414;49.570;6.060;2023-04-30T09:59:42;15.00;1.00
12700;DHT22;6414;49.570;6.060;2023-04-30T10:02:25;15.00;1.00
12700;DHT22;6414;49.570;6.060;2023-04-30T10:05:11;14.80;1.00
12700;DHT22;6414;49.570;6.060;2023-04-30T10:07:57;14.70;1.00
12700;DHT22;6414;49.570;6.060;2023-04-30T10:10:44;14.50;99.90
12700;DHT22;6414;49.570;6.060;2023-04-30T10:16:46;14.30;47.40
12700;DHT22;6414;49.570;6.060;2023-04-30T10:19:30;14.80;99.90
12700;DHT22;6414;49.570;6.060;2023-04-30T10:22:16;14.80;1.00
12700;DHT22;6414;49.570;6.060;2023-04-30T10:25:02;14.80;1.00
12700;DHT22;6414;49.570;6.060;2023-04-30T10:27:49;14.40;1.00
12700;DHT22;6414;49.570;6.060;2023-04-30T10:30:34;14.50;1.00
12700;DHT22;6414;49.570;6.060;2023-04-30T10:33:25;14.50;1.00
12700;DHT22;6414;49.570;6.060;2023-04-30T10:36:09;14.40;1.00
12700;DHT22;6414;49.570;6.060;2023-04-30T10:38:53;14.40;1.00
12700;DHT22;6414;49.570;6.060;2023-04-30T10:41:39;14.50;99.90
12700;DHT22;6414;49.570;6.060;2023-04-30T10:44:25;14.50;99.90
12700;DHT22;6414;49.570;6.060;2023-04-30T10:47:11;14.60;1.00
12700;DHT22;6414;49.570;6.060;2023-04-30T10:50:02;14.80;99.90
12700;DHT22;6414;49.570;6.060;2023-04-30T10:52:47;15.00;99.90
12700;DHT22;6414;49.570;6.060;2023-04-30T10:55:33;15.10;99.90
12700;DHT22;6414;49.570;6.060;2023-04-30T10:58:26;15.10;99.90
12700;DHT22;6414;49.570;6.060;2023-04-30T11:01:10;15.10;1.00
12700;DHT22;6414;49.570;6.060;2023-04-30T11:04:08;15.70;99.90
12700;DHT22;6414;49.570;6.060;2023-04-30T11:07:06;15.60;99.90
12700;DHT22;6414;49.570;6.060;2023-04-30T11:09:47;15.60;99.90
12700;DHT22;6414;49.570;6.060;2023-04-30T11:12:33;15.50;99.90
12700;DHT22;6414;49.570;6.060;2023-04-30T11:15:20;14.90;1.00
12700;DHT22;6414;49.570;6.060;2023-04-30T11:18:06;15.10;1.00
12700;DHT22;6414;49.570;6.060;2023-04-30T11:20:52;15.80;1.00
12700;DHT22;6414;49.570;6.060;2023-04-30T11:23:41;15.40;1.00
12700;DHT22;6414;49.570;6.060;2023-04-30T11:26:27;15.30;1.00
12700;DHT22;6414;49.570;6.060;2023-04-30T11:29:13;15.80;1.00
12700;DHT22;6414;49.570;6.060;2023-04-30T11:32:03;15.90;1.00
12700;DHT22;6414;49.570;6.060;2023-04-30T11:34:48;15.10;1.00
12700;DHT22;6414;49.570;6.060;2023-04-30T11:37:35;15.70;1.00
12700;DHT22;6414;49.570;6.060;2023-04-30T11:40:21;15.50;1.00
12700;DHT22;6414;49.570;6.060;2023-04-30T11:43:19;15.40;99.90
12700;DHT22;6414;49.570;6.060;2023-04-30T11:46:08;15.40;99.90
12700;DHT22;6414;49.570;6.060;2023-04-30T11:48:52;15.70;1.00
12700;DHT22;6414;49.570;6.060;2023-04-30T11:51:39;15.80;1.00
12700;DHT22;6414;49.570;6.060;2023-04-30T11:54:25;15.80;1.00
12700;DHT22;6414;49.570;6.060;2023-04-30T11:57:11;15.90;1.00
12700;DHT22;6414;49.570;6.060;2023-04-30T12:00:06;16.40;1.00
12700;DHT22;6414;49.570;6.060;2023-04-30T12:02:47;16.00;99.90
12700;DHT22;6414;49.570;6.060;2023-04-30T12:05:33;16.70;99.90
12700;DHT22;6414;49.570;6.060;2023-04-30T12:08:19;16.00;99.90
12700;DHT22;6414;49.570;6.060;2023-04-30T12:11:17;16.20;1.00
12700;DHT22;6414;49.570;6.060;2023-04-30T12:13:55;15.50;99.90
12700;DHT22;6414;49.570;6.060;2023-04-30T12:16:47;16.40;99.90
12700;DHT22;6414;49.570;6.060;2023-04-30T12:19:30;16.40;99.90
12700;DHT22;6414;49.570;6.060;2023-04-30T12:22:16;16.40;99.90
12700;DHT22;6414;49.570;6.060;2023-04-30T12:25:13;16.20;1.00
12700;DHT22;6414;49.570;6.060;2023-04-30T12:27:58;16.10;1.00
12700;DHT22;6414;49.570;6.060;2023-04-30T12:30:43;16.20;1.00
12700;DHT22;6414;49.570;6.060;2023-04-30T12:33:30;16.40;99.90
12700;DHT22;6414;49.570;6.060;2023-04-30T12:36:16;16.40;99.90
12700;DHT22;6414;49.570;6.060;2023-04-30T12:39:05;16.70;99.90
12700;DHT22;6414;49.570;6.060;2023-04-30T12:41:51;16.30;99.90
12700;DHT22;6414;49.570;6.060;2023-04-30T12:44:42;16.70;99.90
12700;DHT22;6414;49.570;6.060;2023-04-30T12:47:27;16.70;99.90
12700;DHT22;6414;49.570;6.060;2023-04-30T12:50:13;16.20;99.90
12700;DHT22;6414;49.570;6.060;2023-04-30T12:53:02;16.50;99.90
12700;DHT22;6414;49.570;6.060;2023-04-30T12:56:07;16.60;99.90
12700;DHT22;6414;49.570;6.060;2023-04-30T12:58:52;16.00;99.90
12700;DHT22;6414;49.570;6.060;2023-04-30T13:01:43;16.00;99.90
12700;DHT22;6414;49.570;6.060;2023-04-30T13:04:25;16.60;99.90
12700;DHT22;6414;49.570;6.060;2023-04-30T13:07:11;16.00;99.90
12700;DHT22;6414;49.570;6.060;2023-04-30T13:09:57;16.30;99.90
12700;DHT22;6414;49.570;6.060;2023-04-30T13:12:43;16.50;99.90
12700;DHT22;6414;49.570;6.060;2023-04-30T13:15:29;16.20;99.90
12700;DHT22;6414;49.570;6.060;2023-04-30T13:18:16;16.20;99.90
12700;DHT22;6414;49.570;6.060;2023-04-30T13:21:02;16.20;99.90
12700;DHT22;6414;49.570;6.060;2023-04-30T13:23:48;16.20;99.90
12700;DHT22;6414;49.570;6.060;2023-04-30T13:26:34;16.40;99.90
12700;DHT22;6414;49.570;6.060;2023-04-30T13:29:21;16.50;99.90
12700;DHT22;6414;49.570;6.060;2023-04-30T13:32:07;16.90;99.90
12700;DHT22;6414;49.570;6.060;2023-04-30T13:34:53;17.30;99.90
12700;DHT22;6414;49.570;6.060;2023-04-30T13:37:40;16.90;82.20
12700;DHT22;6414;49.570;6.060;2023-04-30T13:40:26;16.70;99.90
12700;DHT22;6414;49.570;6.060;2023-04-30T13:43:12;17.30;84.60
12700;DHT22;6414;49.570;6.060;2023-04-30T13:45:58;16.70;98.40
12700;DHT22;6414;49.570;6.060;2023-04-30T13:48:44;17.00;99.90
12700;DHT22;6414;49.570;6.060;2023-04-30T13:51:30;17.10;99.90
12700;DHT22;6414;49.570;6.060;2023-04-30T13:54:17;17.10;99.90
12700;DHT22;6414;49.570;6.060;2023-04-30T13:57:03;17.00;99.90
12700;DHT22;6414;49.570;6.060;2023-04-30T13:59:49;17.40;18.90
12700;DHT22;6414;49.570;6.060;2023-04-30T14:02:35;17.10;99.90
12700;DHT22;6414;49.570;6.060;2023-04-30T14:05:21;17.00;99.90
12700;DHT22;6414;49.570;6.060;2023-04-30T14:08:07;17.20;99.90
12700;DHT22;6414;49.570;6.060;2023-04-30T14:10:54;17.00;99.90
12700;DHT22;6414;49.570;6.060;2023-04-30T14:13:41;17.00;99.90
12700;DHT22;6414;49.570;6.060;2023-04-30T14:16:27;16.60;99.90
12700;DHT22;6414;49.570;6.060;2023-04-30T14:19:13;16.90;99.90
12700;DHT22;6414;49.570;6.060;2023-04-30T14:21:59;16.80;99.90
12700;DHT22;6414;49.570;6.060;2023-04-30T14:24:45;16.60;99.90
12700;DHT22;6414;49.570;6.060;2023-04-30T14:27:31;16.20;99.90
12700;DHT22;6414;49.570;6.060;2023-04-30T14:30:17;16.40;99.90
12700;DHT22;6414;49.570;6.060;2023-04-30T14:33:03;16.80;99.90
12700;DHT22;6414;49.570;6.060;2023-04-30T14:35:49;17.00;34.00
12700;DHT22;6414;49.570;6.060;2023-04-30T14:38:35;17.00;90.00
12700;DHT22;6414;49.570;6.060;2023-04-30T14:41:21;16.30;99.90
12700;DHT22;6414;49.570;6.060;2023-04-30T14:44:07;16.10;99.90
12700;DHT22;6414;49.570;6.060;2023-04-30T14:46:53;16.20;99.90
12700;DHT22;6414;49.570;6.060;2023-04-30T14:49:40;16.60;99.90
12700;DHT22;6414;49.570;6.060;2023-04-30T14:52:26;16.60;99.90
12700;DHT22;6414;49.570;6.060;2023-04-30T14:55:13;16.90;99.90
12700;DHT22;6414;49.570;6.060;2023-04-30T14:58:00;16.90;99.90
12700;DHT22;6414;49.570;6.060;2023-04-30T15:00:46;16.60;99.90
12700;DHT22;6414;49.570;6.060;2023-04-30T15:03:32;16.40;99.90
12700;DHT22;6414;49.570;6.060;2023-04-30T15:06:19;16.40;1.00
12700;DHT22;6414;49.570;6.060;2023-04-30T15:09:05;16.30;1.00
12700;DHT22;6414;49.570;6.060;2023-04-30T15:11:51;16.50;99.90
12700;DHT22;6414;49.570;6.060;2023-04-30T15:14:37;16.40;1.00
12700;DHT22;6414;49.570;6.060;2023-04-30T15:17:23;16.20;99.90
12700;DHT22;6414;49.570;6.060;2023-04-30T15:20:09;16.20;99.90
12700;DHT22;6414;49.570;6.060;2023-04-30T15:22:55;16.10;99.90
12700;DHT22;6414;49.570;6.060;2023-04-30T15:25:41;16.00;99.90
12700;DHT22;6414;49.570;6.060;2023-04-30T15:28:28;16.30;99.90
12700;DHT22;6414;49.570;6.060;2023-04-30T15:31:14;16.20;99.90
12700;DHT22;6414;49.570;6.060;2023-04-30T15:34:02;16.20;99.90
12700;DHT22;6414;49.570;6.060;2023-04-30T15:36:48;16.20;99.90
12700;DHT22;6414;49.570;6.060;2023-04-30T15:39:34;16.40;99.90
12700;DHT22;6414;49.570;6.060;2023-04-30T15:42:20;16.00;99.90
12700;DHT22;6414;49.570;6.060;2023-04-30T15:45:06;16.00;99.90
12700;DHT22;6414;49.570;6.060;2023-04-30T15:47:52;16.10;99.90
12700;DHT22;6414;49.570;6.060;2023-04-30T15:50:38;15.80;99.90
12700;DHT22;6414;49.570;6.060;2023-04-30T15:53:24;15.80;99.90
12700;DHT22;6414;49.570;6.060;2023-04-30T15:56:10;16.10;99.90
12700;DHT22;6414;49.570;6.060;2023-04-30T15:58:57;16.20;99.90
12700;DHT22;6414;49.570;6.060;2023-04-30T16:01:44;16.10;99.90
12700;DHT22;6414;49.570;6.060;2023-04-30T16:04:30;16.10;99.90
12700;DHT22;6414;49.570;6.060;2023-04-30T16:07:16;16.20;99.90
12700;DHT22;6414;49.570;6.060;2023-04-30T16:10:03;16.00;99.90
12700;DHT22;6414;49.570;6.060;2023-04-30T16:12:50;15.90;99.90
12700;DHT22;6414;49.570;6.060;2023-04-30T16:15:37;15.80;99.90
12700;DHT22;6414;49.570;6.060;2023-04-30T16:18:23;15.90;1.00
12700;DHT22;6414;49.570;6.060;2023-04-30T16:21:10;15.90;1.00
12700;DHT22;6414;49.570;6.060;2023-04-30T16:23:57;15.70;1.00
12700;DHT22;6414;49.570;6.060;2023-04-30T16:26:43;15.70;1.00
12700;DHT22;6414;49.570;6.060;2023-04-30T16:29:29;15.60;99.90
12700;DHT22;6414;49.570;6.060;2023-04-30T16:32:15;15.60;1.00
12700;DHT22;6414;49.570;6.060;2023-04-30T16:35:01;15.50;99.90
12700;DHT22;6414;49.570;6.060;2023-04-30T16:37:47;15.50;99.90
12700;DHT22;6414;49.570;6.060;2023-04-30T16:40:33;15.70;99.90
12700;DHT22;6414;49.570;6.060;2023-04-30T16:43:20;15.60;99.90
12700;DHT22;6414;49.570;6.060;2023-04-30T16:46:06;15.50;99.90
12700;DHT22;6414;49.570;6.060;2023-04-30T16:48:53;15.40;1.00
12700;DHT22;6414;49.570;6.060;2023-04-30T16:51:39;15.40;1.00
12700;DHT22;6414;49.570;6.060;2023-04-30T16:54:26;15.40;1.00
12700;DHT22;6414;49.570;6.060;2023-04-30T16:57:12;15.30;1.00
12700;DHT22;6414;49.570;6.060;2023-04-30T16:59:58;15.20;99.90
12700;DHT22;6414;49.570;6.060;2023-04-30T17:02:45;15.20;1.00
12700;DHT22;6414;49.570;6.060;2023-04-30T17:05:31;15.20;1.00
12700;DHT22;6414;49.570;6.060;2023-04-30T17:08:17;15.20;1.00
12700;DHT22;6414;49.570;6.060;2023-04-30T17:11:03;15.20;99.90
12700;DHT22;6414;49.570;6.060;2023-04-30T17:13:49;15.20;1.00
12700;DHT22;6414;49.570;6.060;2023-04-30T17:16:35;15.20;99.90
12700;DHT22;6414;49.570;6.060;2023-04-30T17:19:22;15.20;1.00
12700;DHT22;6414;49.570;6.060;2023-04-30T17:22:08;15.20;1.00
12700;DHT22;6414;49.570;6.060;2023-04-30T17:24:56;15.10;1.00
12700;DHT22;6414;49.570;6.060;2023-04-30T17:27:42;15.10;1.00
12700;DHT22;6414;49.570;6.060;2023-04-30T17:30:28;15.00;1.00
12700;DHT22;6414;49.570;6.060;2023-04-30T17:33:14;15.10;1.00
12700;DHT22;6414;49.570;6.060;2023-04-30T17:36:01;14.90;1.90
12700;DHT22;6414;49.570;6.060;2023-04-30T17:38:48;14.80;58.30
12700;DHT22;6414;49.570;6.060;2023-04-30T17:41:34;14.80;48.20
12700;DHT22;6414;49.570;6.060;2023-04-30T17:44:21;14.80;92.40
12700;DHT22;6414;49.570;6.060;2023-04-30T17:47:06;14.80;1.00
12700;DHT22;6414;49.570;6.060;2023-04-30T17:49:53;14.80;9.50
12700;DHT22;6414;49.570;6.060;2023-04-30T17:52:39;14.70;1.00
12700;DHT22;6414;49.570;6.060;2023-04-30T17:55:25;14.60;99.90
12700;DHT22;6414;49.570;6.060;2023-04-30T17:58:11;14.60;81.40
12700;DHT22;6414;49.570;6.060;2023-04-30T18:00:57;14.60;99.90
12700;DHT22;6414;49.570;6.060;2023-04-30T18:03:43;14.50;99.90
12700;DHT22;6414;49.570;6.060;2023-04-30T18:06:29;14.50;99.90
12700;DHT22;6414;49.570;6.060;2023-04-30T18:09:15;14.50;1.00
12700;DHT22;6414;49.570;6.060;2023-04-30T18:12:01;14.40;1.00